sensor_id;sensor_type;location;lat;lon;timestamp;temperature;humidity
18218;DHT22;9234;49.344;11.120;2023-06-24T00:01:52;16.70;99.90
18218;DHT22;9234;49.344;11.120;2023-06-24T00:04:21;16.70;99.90
18218;DHT22;9234;49.344;11.120;2023-06-24T00:06:51;16.70;99.90
18218;DHT22;9234;49.344;11.120;2023-06-24T00:09:23;16.70;99.90
18218;DHT22;9234;49.344;11.120;2023-06-24T00:11:52;16.70;99.90
18218;DHT22;9234;49.344;11.120;2023-06-24T00:14:20;16.60;99.90
18218;DHT22;9234;49.344;11.120;2023-06-24T00:16:50;16.60;99.90
18218;DHT22;9234;49.344;11.120;2023-06-24T00:19:20;16.60;99.90
18218;DHT22;9234;49.344;11.120;2023-06-24T00:21:52;16.60;99.90
18218;DHT22;9234;49.344;11.120;2023-06-24T00:24:21;16.60;99.90
18218;DHT22;9234;49.344;11.120;2023-06-24T00:26:52;16.50;99.90
18218;DHT22;9234;49.344;11.120;2023-06-24T00:29:21;16.40;99.90
18218;DHT22;9234;49.344;11.120;2023-06-24T00:31:49;16.40;99.90
18218;DHT22;9234;49.344;11.120;2023-06-24T00:34:18;16.40;99.90
18218;DHT22;9234;49.344;11.120;2023-06-24T00:36:47;16.30;99.90
18218;DHT22;9234;49.344;11.120;2023-06-24T00:39:17;16.30;99.90
18218;DHT22;9234;49.344;11.120;2023-06-24T00:41:46;16.20;99.90
18218;DHT22;9234;49.344;11.120;2023-06-24T00:44:16;16.10;99.90
18218;DHT22;9234;49.344;11.120;2023-06-24T00:46:44;16.10;99.90
18218;DHT22;9234;49.344;11.120;2023-06-24T00:49:12;16.00;99.90
18218;DHT22;9234;49.344;11.120;2023-06-24T00:51:43;16.00;99.90
18218;DHT22;9234;49.344;11.120;2023-06-24T00:54:18;16.00;99.90
18218;DHT22;9234;49.344;11.120;2023-06-24T00:56:47;15.90;99.90
18218;DHT22;9234;49.344;11.120;2023-06-24T00:59:17;15.90;99.90
18218;DHT22;9234;49.344;11.120;2023-06-24T01:01:46;15.80;99.90
18218;DHT22;9234;49.344;11.120;2023-06-24T01:04:17;15.80;99.90
18218;DHT22;9234;49.344;11.120;2023-06-24T01:06:46;15.70;99.90
18218;DHT22;9234;49.344;11.120;2023-06-24T01:09:17;15.70;99.90
18218;DHT22;9234;49.344;11.120;2023-06-24T01:11:46;15.60;99.90
18218;DHT22;9234;49.344;11.120;2023-06-24T01:14:15;15.60;99.90
18218;DHT22;9234;49.344;11.120;2023-06-24T01:16:53;15.50;99.90
18218;DHT22;9234;49.344;11.120;2023-06-24T01:23:02;15.40;99.90
18218;DHT22;9234;49.344;11.120;2023-06-24T01:32:00;15.20;99.90
18218;DHT22;9234;49.344;11.120;2023-06-24T01:34:37;15.10;99.90
18218;DHT22;9234;49.344;11.120;2023-06-24T01:37:16;15.10;99.90
18218;DHT22;9234;49.344;11.120;2023-06-24T01:39:50;15.00;99.90
18218;DHT22;9234;49.344;11.120;2023-06-24T01:42:24;14.90;99.90
18218;DHT22;9234;49.344;11.120;2023-06-24T01:44:53;14.90;99.90
18218;DHT22;9234;49.344;11.120;2023-06-24T01:47:26;14.80;99.90
18218;DHT22;9234;49.344;11.120;2023-06-24T01:49:58;14.80;99.90
18218;DHT22;9234;49.344;11.120;2023-06-24T01:52:32;14.70;99.90
18218;DHT22;9234;49.344;11.120;2023-06-24T01:55:04;14.60;99.90
18218;DHT22;9234;49.344;11.120;2023-06-24T01:57:36;14.60;99.90
18218;DHT22;9234;49.344;11.120;2023-06-24T02:00:09;14.50;99.90
18218;DHT22;9234;49.344;11.120;2023-06-24T02:02:50;14.50;99.90
18218;DHT22;9234;49.344;11.120;2023-06-24T02:05:20;14.40;99.90
18218;DHT22;9234;49.344;11.120;2023-06-24T02:07:52;14.40;99.90
18218;DHT22;9234;49.344;11.120;2023-06-24T02:10:22;14.30;99.90
18218;DHT22;9234;49.344;11.120;2023-06-24T02:12:52;14.30;99.90
18218;DHT22;9234;49.344;11.120;2023-06-24T02:15:23;14.30;99.90
18218;DHT22;9234;49.344;11.120;2023-06-24T02:17:55;14.20;99.90
18218;DHT22;9234;49.344;11.120;2023-06-24T02:20:26;14.20;99.90
18218;DHT22;9234;49.344;11.120;2023-06-24T02:22:56;14.10;99.90
18218;DHT22;9234;49.344;11.120;2023-06-24T02:25:27;14.10;99.90
18218;DHT22;9234;49.344;11.120;2023-06-24T02:27:57;14.10;99.90
18218;DHT22;9234;49.344;11.120;2023-06-24T02:30:26;14.00;99.90
18218;DHT22;9234;49.344;11.120;2023-06-24T02:32:58;14.00;99.90
18218;DHT22;9234;49.344;11.120;2023-06-24T02:35:26;13.90;99.90
18218;DHT22;9234;49.344;11.120;2023-06-24T02:37:54;13.90;99.90
18218;DHT22;9234;49.344;11.120;2023-06-24T02:40:23;13.80;99.90
18218;DHT22;9234;49.344;11.120;2023-06-24T02:42:52;13.80;99.90
18218;DHT22;9234;49.344;11.120;2023-06-24T02:45:21;13.70;99.90
18218;DHT22;9234;49.344;11.120;2023-06-24T02:47:50;13.70;99.90
18218;DHT22;9234;49.344;11.120;2023-06-24T02:50:22;13.70;99.90
18218;DHT22;9234;49.344;11.120;2023-06-24T02:52:52;13.60;99.90
18218;DHT22;9234;49.344;11.120;2023-06-24T02:55:24;13.60;99.90
18218;DHT22;9234;49.344;11.120;2023-06-24T02:57:59;13.50;99.90
18218;DHT22;9234;49.344;11.120;2023-06-24T03:00:30;13.50;99.90
18218;DHT22;9234;49.344;11.120;2023-06-24T03:03:10;13.50;99.90
18218;DHT22;9234;49.344;11.120;2023-06-24T03:06:01;13.50;99.90
18218;DHT22;9234;49.344;11.120;2023-06-24T03:08:31;13.40;99.90
18218;DHT22;9234;49.344;11.120;2023-06-24T03:11:00;13.40;99.90
18218;DHT22;9234;49.344;11.120;2023-06-24T03:13:30;13.40;99.90
18218;DHT22;9234;49.344;11.120;2023-06-24T03:16:33;13.40;99.90
18218;DHT22;9234;49.344;11.120;2023-06-24T03:19:08;13.30;99.90
18218;DHT22;9234;49.344;11.120;2023-06-24T03:21:39;13.30;99.90
18218;DHT22;9234;49.344;11.120;2023-06-24T03:24:11;13.30;99.90
18218;DHT22;9234;49.344;11.120;2023-06-24T03:26:41;13.30;99.90
18218;DHT22;9234;49.344;11.120;2023-06-24T03:29:12;13.30;99.90
18218;DHT22;9234;49.344;11.120;2023-06-24T03:32:01;13.40;99.90
18218;DHT22;9234;49.344;11.120;2023-06-24T03:34:30;13.40;99.90
18218;DHT22;9234;49.344;11.120;2023-06-24T03:37:00;13.40;99.90
18218;DHT22;9234;49.344;11.120;2023-06-24T03:39:32;13.40;99.90
18218;DHT22;9234;49.344;11.120;2023-06-24T03:42:01;13.40;99.90
18218;DHT22;9234;49.344;11.120;2023-06-24T03:44:30;13.50;99.90
18218;DHT22;9234;49.344;11.120;2023-06-24T03:46:58;13.50;99.90
18218;DHT22;9234;49.344;11.120;2023-06-24T03:49:26;13.50;99.90
18218;DHT22;9234;49.344;11.120;2023-06-24T03:51:55;13.60;99.90
18218;DHT22;9234;49.344;11.120;2023-06-24T03:54:25;13.60;99.90
18218;DHT22;9234;49.344;11.120;2023-06-24T03:56:54;13.70;99.90
18218;DHT22;9234;49.344;11.120;2023-06-24T03:59:22;13.70;99.90
18218;DHT22;9234;49.344;11.120;2023-06-24T04:01:53;13.70;99.90
18218;DHT22;9234;49.344;11.120;2023-06-24T04:04:21;13.70;99.90
18218;DHT22;9234;49.344;11.120;2023-06-24T04:06:50;13.70;99.90
18218;DHT22;9234;49.344;11.120;2023-06-24T04:09:18;13.70;99.90
18218;DHT22;9234;49.344;11.120;2023-06-24T04:11:54;13.70;99.90
18218;DHT22;9234;49.344;11.120;2023-06-24T04:14:22;13.70;99.90
18218;DHT22;9234;49.344;11.120;2023-06-24T04:16:51;13.70;99.90
18218;DHT22;9234;49.344;11.120;2023-06-24T04:19:19;13.70;99.90
18218;DHT22;9234;49.344;11.120;2023-06-24T04:21:48;13.70;99.90
18218;DHT22;9234;49.344;11.120;2023-06-24T04:24:17;13.70;99.90
18218;DHT22;9234;49.344;11.120;2023-06-24T04:26:45;13.70;99.90
18218;DHT22;9234;49.344;11.120;2023-06-24T04:29:15;13.80;99.90
18218;DHT22;9234;49.344;11.120;2023-06-24T04:31:44;13.80;99.90
18218;DHT22;9234;49.344;11.120;2023-06-24T04:34:12;13.80;99.90
18218;DHT22;9234;49.344;11.120;2023-06-24T04:36:41;13.90;99.90
18218;DHT22;9234;49.344;11.120;2023-06-24T04:39:09;13.90;99.90
18218;DHT22;9234;49.344;11.120;2023-06-24T04:41:38;13.90;99.90
18218;DHT22;9234;49.344;11.120;2023-06-24T04:44:06;13.90;99.90
18218;DHT22;9234;49.344;11.120;2023-06-24T04:46:36;14.00;99.90
18218;DHT22;9234;49.344;11.120;2023-06-24T04:49:06;14.00;99.90
18218;DHT22;9234;49.344;11.120;2023-06-24T04:51:35;14.00;99.90
18218;DHT22;9234;49.344;11.120;2023-06-24T04:54:04;14.10;99.90
18218;DHT22;9234;49.344;11.120;2023-06-24T04:56:32;14.10;99.90
18218;DHT22;9234;49.344;11.120;2023-06-24T04:59:01;14.20;99.90
18218;DHT22;9234;49.344;11.120;2023-06-24T05:01:29;14.20;99.90
18218;DHT22;9234;49.344;11.120;2023-06-24T05:03:59;14.20;99.90
18218;DHT22;9234;49.344;11.120;2023-06-24T05:06:28;14.30;99.90
18218;DHT22;9234;49.344;11.120;2023-06-24T05:08:56;14.40;99.90
18218;DHT22;9234;49.344;11.120;2023-06-24T05:11:25;14.40;99.90
18218;DHT22;9234;49.344;11.120;2023-06-24T05:13:53;14.50;99.90
18218;DHT22;9234;49.344;11.120;2023-06-24T05:16:21;14.60;99.90
18218;DHT22;9234;49.344;11.120;2023-06-24T05:18:51;14.60;99.90
18218;DHT22;9234;49.344;11.120;2023-06-24T05:21:20;14.60;99.90
18218;DHT22;9234;49.344;11.120;2023-06-24T05:23:48;14.70;99.90
18218;DHT22;9234;49.344;11.120;2023-06-24T05:26:17;14.80;99.90
18218;DHT22;9234;49.344;11.120;2023-06-24T05:28:46;14.90;99.90
18218;DHT22;9234;49.344;11.120;2023-06-24T05:31:15;14.90;99.90
18218;DHT22;9234;49.344;11.120;2023-06-24T05:33:43;15.00;99.90
18218;DHT22;9234;49.344;11.120;2023-06-24T05:36:12;15.10;99.90
18218;DHT22;9234;49.344;11.120;2023-06-24T05:38:42;15.10;99.90
18218;DHT22;9234;49.344;11.120;2023-06-24T05:41:10;15.20;99.90
18218;DHT22;9234;49.344;11.120;2023-06-24T05:43:39;15.30;99.90
18218;DHT22;9234;49.344;11.120;2023-06-24T05:46:08;15.40;99.90
18218;DHT22;9234;49.344;11.120;2023-06-24T05:48:36;15.50;99.90
18218;DHT22;9234;49.344;11.120;2023-06-24T05:51:05;15.60;99.90
18218;DHT22;9234;49.344;11.120;2023-06-24T05:53:33;15.70;99.90
18218;DHT22;9234;49.344;11.120;2023-06-24T05:56:03;15.80;99.90
18218;DHT22;9234;49.344;11.120;2023-06-24T05:58:32;15.80;99.90
18218;DHT22;9234;49.344;11.120;2023-06-24T06:01:00;15.90;99.90
18218;DHT22;9234;49.344;11.120;2023-06-24T06:03:29;16.00;99.90
18218;DHT22;9234;49.344;11.120;2023-06-24T06:05:59;16.10;99.90
18218;DHT22;9234;49.344;11.120;2023-06-24T06:08:27;16.20;99.90
18218;DHT22;9234;49.344;11.120;2023-06-24T06:10:56;16.30;99.90
18218;DHT22;9234;49.344;11.120;2023-06-24T06:13:25;16.40;99.90
18218;DHT22;9234;49.344;11.120;2023-06-24T06:15:54;16.50;99.90
18218;DHT22;9234;49.344;11.120;2023-06-24T06:18:22;16.60;99.90
18218;DHT22;9234;49.344;11.120;2023-06-24T06:20:50;16.70;99.90
18218;DHT22;9234;49.344;11.120;2023-06-24T06:23:19;16.70;99.90
18218;DHT22;9234;49.344;11.120;2023-06-24T06:25:47;16.90;99.90
18218;DHT22;9234;49.344;11.120;2023-06-24T06:28:15;17.00;99.90
18218;DHT22;9234;49.344;11.120;2023-06-24T06:30:45;17.10;99.90
18218;DHT22;9234;49.344;11.120;2023-06-24T06:33:13;17.20;99.90
18218;DHT22;9234;49.344;11.120;2023-06-24T06:35:41;17.30;99.90
18218;DHT22;9234;49.344;11.120;2023-06-24T06:38:10;17.40;99.90
18218;DHT22;9234;49.344;11.120;2023-06-24T06:40:38;17.50;99.90
18218;DHT22;9234;49.344;11.120;2023-06-24T06:43:07;17.60;99.90
18218;DHT22;9234;49.344;11.120;2023-06-24T06:45:35;17.70;99.90
18218;DHT22;9234;49.344;11.120;2023-06-24T06:48:05;17.80;99.90
18218;DHT22;9234;49.344;11.120;2023-06-24T06:50:34;17.90;99.90
18218;DHT22;9234;49.344;11.120;2023-06-24T06:53:03;18.00;99.90
18218;DHT22;9234;49.344;11.120;2023-06-24T06:55:31;18.10;99.90
18218;DHT22;9234;49.344;11.120;2023-06-24T06:58:00;18.20;99.90
18218;DHT22;9234;49.344;11.120;2023-06-24T07:00:28;18.30;99.90
18218;DHT22;9234;49.344;11.120;2023-06-24T07:02:56;18.40;99.90
18218;DHT22;9234;49.344;11.120;2023-06-24T07:05:26;18.50;99.90
18218;DHT22;9234;49.344;11.120;2023-06-24T07:07:55;18.60;99.90
18218;DHT22;9234;49.344;11.120;2023-06-24T07:10:23;18.70;99.90
18218;DHT22;9234;49.344;11.120;2023-06-24T07:12:51;18.80;99.90
18218;DHT22;9234;49.344;11.120;2023-06-24T07:15:25;18.90;99.90
18218;DHT22;9234;49.344;11.120;2023-06-24T07:17:53;19.00;99.90
18218;DHT22;9234;49.344;11.120;2023-06-24T07:20:22;19.10;99.90
18218;DHT22;9234;49.344;11.120;2023-06-24T07:22:51;19.20;99.90
18218;DHT22;9234;49.344;11.120;2023-06-24T07:25:20;19.30;99.90
18218;DHT22;9234;49.344;11.120;2023-06-24T07:27:48;19.40;99.90
18218;DHT22;9234;49.344;11.120;2023-06-24T07:30:17;19.50;99.90
18218;DHT22;9234;49.344;11.120;2023-06-24T07:32:45;19.60;99.90
18218;DHT22;9234;49.344;11.120;2023-06-24T07:35:14;19.60;99.90
18218;DHT22;9234;49.344;11.120;2023-06-24T07:37:43;19.70;99.90
18218;DHT22;9234;49.344;11.120;2023-06-24T07:40:13;19.90;99.90
18218;DHT22;9234;49.344;11.120;2023-06-24T07:42:41;19.90;99.90
18218;DHT22;9234;49.344;11.120;2023-06-24T07:45:10;20.00;99.90
18218;DHT22;9234;49.344;11.120;2023-06-24T07:47:38;20.10;99.90
18218;DHT22;9234;49.344;11.120;2023-06-24T07:50:07;20.20;99.90
18218;DHT22;9234;49.344;11.120;2023-06-24T07:52:37;20.40;99.90
18218;DHT22;9234;49.344;11.120;2023-06-24T07:55:06;20.50;99.90
18218;DHT22;9234;49.344;11.120;2023-06-24T07:57:36;20.70;99.90
18218;DHT22;9234;49.344;11.120;2023-06-24T08:00:07;20.70;99.90
18218;DHT22;9234;49.344;11.120;2023-06-24T08:02:42;20.80;99.90
18218;DHT22;9234;49.344;11.120;2023-06-24T08:05:10;21.00;99.90
18218;DHT22;9234;49.344;11.120;2023-06-24T08:07:39;21.10;99.90
18218;DHT22;9234;49.344;11.120;2023-06-24T08:10:07;21.10;99.90
18218;DHT22;9234;49.344;11.120;2023-06-24T08:12:37;21.20;99.90
18218;DHT22;9234;49.344;11.120;2023-06-24T08:15:07;21.30;99.90
18218;DHT22;9234;49.344;11.120;2023-06-24T08:17:36;21.30;99.70
18218;DHT22;9234;49.344;11.120;2023-06-24T08:20:05;21.40;99.90
18218;DHT22;9234;49.344;11.120;2023-06-24T08:22:33;21.60;99.90
18218;DHT22;9234;49.344;11.120;2023-06-24T08:25:02;21.80;99.80
18218;DHT22;9234;49.344;11.120;2023-06-24T08:27:31;22.00;99.20
18218;DHT22;9234;49.344;11.120;2023-06-24T08:30:00;22.10;98.90
18218;DHT22;9234;49.344;11.120;2023-06-24T08:32:29;22.30;99.00
18218;DHT22;9234;49.344;11.120;2023-06-24T08:34:57;22.40;97.90
18218;DHT22;9234;49.344;11.120;2023-06-24T08:37:25;22.50;97.70
18218;DHT22;9234;49.344;11.120;2023-06-24T08:39:54;22.50;97.90
18218;DHT22;9234;49.344;11.120;2023-06-24T08:42:23;22.50;96.80
18218;DHT22;9234;49.344;11.120;2023-06-24T08:44:51;22.60;96.80
18218;DHT22;9234;49.344;11.120;2023-06-24T08:47:24;22.80;96.50
18218;DHT22;9234;49.344;11.120;2023-06-24T08:49:53;22.90;95.00
18218;DHT22;9234;49.344;11.120;2023-06-24T08:52:32;22.90;94.30
18218;DHT22;9234;49.344;11.120;2023-06-24T08:55:06;22.90;94.50
18218;DHT22;9234;49.344;11.120;2023-06-24T08:57:40;23.10;94.70
18218;DHT22;9234;49.344;11.120;2023-06-24T09:00:09;23.30;93.30
18218;DHT22;9234;49.344;11.120;2023-06-24T09:02:39;23.40;90.50
18218;DHT22;9234;49.344;11.120;2023-06-24T09:05:08;23.50;90.80
18218;DHT22;9234;49.344;11.120;2023-06-24T09:07:36;23.70;91.10
18218;DHT22;9234;49.344;11.120;2023-06-24T09:10:05;23.90;91.40
18218;DHT22;9234;49.344;11.120;2023-06-24T09:12:34;24.20;91.10
18218;DHT22;9234;49.344;11.120;2023-06-24T09:15:04;24.40;90.10
18218;DHT22;9234;49.344;11.120;2023-06-24T09:17:32;24.50;88.70
18218;DHT22;9234;49.344;11.120;2023-06-24T09:20:12;24.70;87.30
18218;DHT22;9234;49.344;11.120;2023-06-24T09:22:41;24.80;85.90
18218;DHT22;9234;49.344;11.120;2023-06-24T09:25:09;25.10;86.40
18218;DHT22;9234;49.344;11.120;2023-06-24T09:27:47;25.20;83.10
18218;DHT22;9234;49.344;11.120;2023-06-24T09:30:19;25.40;82.80
18218;DHT22;9234;49.344;11.120;2023-06-24T09:32:49;25.60;83.80
18218;DHT22;9234;49.344;11.120;2023-06-24T09:35:21;25.90;83.20
18218;DHT22;9234;49.344;11.120;2023-06-24T09:37:51;26.20;80.90
18218;DHT22;9234;49.344;11.120;2023-06-24T09:40:20;26.30;78.40
18218;DHT22;9234;49.344;11.120;2023-06-24T09:42:50;26.30;78.10
18218;DHT22;9234;49.344;11.120;2023-06-24T09:45:23;26.20;76.30
18218;DHT22;9234;49.344;11.120;2023-06-24T09:47:53;26.10;77.50
18218;DHT22;9234;49.344;11.120;2023-06-24T09:50:23;25.90;76.70
18218;DHT22;9234;49.344;11.120;2023-06-24T09:52:52;25.80;76.30
18218;DHT22;9234;49.344;11.120;2023-06-24T09:55:25;25.70;76.10
18218;DHT22;9234;49.344;11.120;2023-06-24T09:57:53;25.70;75.50
18218;DHT22;9234;49.344;11.120;2023-06-24T10:00:22;25.70;73.70
18218;DHT22;9234;49.344;11.120;2023-06-24T10:02:53;26.00;76.40
18218;DHT22;9234;49.344;11.120;2023-06-24T10:05:28;26.20;72.20
18218;DHT22;9234;49.344;11.120;2023-06-24T10:07:57;26.20;71.70
18218;DHT22;9234;49.344;11.120;2023-06-24T10:10:25;26.30;70.90
18218;DHT22;9234;49.344;11.120;2023-06-24T10:12:53;26.20;68.40
18218;DHT22;9234;49.344;11.120;2023-06-24T10:15:22;26.20;68.00
18218;DHT22;9234;49.344;11.120;2023-06-24T10:17:50;26.40;68.00
18218;DHT22;9234;49.344;11.120;2023-06-24T10:20:39;26.70;67.70
18218;DHT22;9234;49.344;11.120;2023-06-24T10:23:07;27.10;70.20
18218;DHT22;9234;49.344;11.120;2023-06-24T10:25:36;27.30;66.20
18218;DHT22;9234;49.344;11.120;2023-06-24T10:28:05;27.30;66.50
18218;DHT22;9234;49.344;11.120;2023-06-24T10:30:33;27.40;65.60
18218;DHT22;9234;49.344;11.120;2023-06-24T10:33:10;27.50;65.90
18218;DHT22;9234;49.344;11.120;2023-06-24T10:35:42;27.40;64.90
18218;DHT22;9234;49.344;11.120;2023-06-24T10:38:11;27.40;65.10
18218;DHT22;9234;49.344;11.120;2023-06-24T10:40:40;27.60;64.90
18218;DHT22;9234;49.344;11.120;2023-06-24T10:43:27;27.80;63.20
18218;DHT22;9234;49.344;11.120;2023-06-24T10:45:57;28.00;65.40
18218;DHT22;9234;49.344;11.120;2023-06-24T10:48:26;28.30;66.10
18218;DHT22;9234;49.344;11.120;2023-06-24T10:50:56;28.40;62.80
18218;DHT22;9234;49.344;11.120;2023-06-24T10:53:24;28.50;61.40
18218;DHT22;9234;49.344;11.120;2023-06-24T10:55:57;28.60;61.60
18218;DHT22;9234;49.344;11.120;2023-06-24T10:58:26;28.80;59.30
18218;DHT22;9234;49.344;11.120;2023-06-24T11:01:06;28.90;59.10
18218;DHT22;9234;49.344;11.120;2023-06-24T11:03:36;28.90;59.00
18218;DHT22;9234;49.344;11.120;2023-06-24T11:06:10;29.00;58.50
18218;DHT22;9234;49.344;11.120;2023-06-24T11:08:43;29.10;59.50
18218;DHT22;9234;49.344;11.120;2023-06-24T11:11:18;29.40;61.90
18218;DHT22;9234;49.344;11.120;2023-06-24T11:13:48;29.60;57.20
18218;DHT22;9234;49.344;11.120;2023-06-24T11:16:20;29.40;57.00
18218;DHT22;9234;49.344;11.120;2023-06-24T11:18:49;29.30;58.10
18218;DHT22;9234;49.344;11.120;2023-06-24T11:21:19;29.30;57.10
18218;DHT22;9234;49.344;11.120;2023-06-24T11:23:47;29.40;55.80
18218;DHT22;9234;49.344;11.120;2023-06-24T11:26:15;29.50;55.70
18218;DHT22;9234;49.344;11.120;2023-06-24T11:28:44;29.70;56.30
18218;DHT22;9234;49.344;11.120;2023-06-24T11:31:12;30.00;54.40
18218;DHT22;9234;49.344;11.120;2023-06-24T11:33:41;30.10;54.70
18218;DHT22;9234;49.344;11.120;2023-06-24T11:36:10;30.20;53.10
18218;DHT22;9234;49.344;11.120;2023-06-24T11:38:39;30.20;53.40
18218;DHT22;9234;49.344;11.120;2023-06-24T11:41:08;29.90;52.90
18218;DHT22;9234;49.344;11.120;2023-06-24T11:43:36;29.40;53.60
18218;DHT22;9234;49.344;11.120;2023-06-24T11:46:05;28.90;53.90
18218;DHT22;9234;49.344;11.120;2023-06-24T11:48:39;28.70;55.80
18218;DHT22;9234;49.344;11.120;2023-06-24T11:51:12;28.80;55.60
18218;DHT22;9234;49.344;11.120;2023-06-24T11:53:42;28.90;55.00
18218;DHT22;9234;49.344;11.120;2023-06-24T11:56:12;29.30;57.00
18218;DHT22;9234;49.344;11.120;2023-06-24T11:58:43;29.60;54.30
18218;DHT22;9234;49.344;11.120;2023-06-24T12:01:11;29.90;53.40
18218;DHT22;9234;49.344;11.120;2023-06-24T12:03:41;30.00;53.80
18218;DHT22;9234;49.344;11.120;2023-06-24T12:06:09;30.10;51.90
18218;DHT22;9234;49.344;11.120;2023-06-24T12:08:38;30.40;52.60
18218;DHT22;9234;49.344;11.120;2023-06-24T12:11:19;30.70;53.60
18218;DHT22;9234;49.344;11.120;2023-06-24T12:13:48;30.60;52.30
18218;DHT22;9234;49.344;11.120;2023-06-24T12:16:16;30.30;51.70
18218;DHT22;9234;49.344;11.120;2023-06-24T12:18:45;30.10;52.20
18218;DHT22;9234;49.344;11.120;2023-06-24T12:21:13;30.30;53.20
18218;DHT22;9234;49.344;11.120;2023-06-24T12:23:41;30.40;52.70
18218;DHT22;9234;49.344;11.120;2023-06-24T12:26:10;30.30;52.00
18218;DHT22;9234;49.344;11.120;2023-06-24T12:28:39;30.10;54.00
18218;DHT22;9234;49.344;11.120;2023-06-24T12:31:08;30.10;55.90
18218;DHT22;9234;49.344;11.120;2023-06-24T12:33:36;30.30;56.00
18218;DHT22;9234;49.344;11.120;2023-06-24T12:36:05;30.50;54.70
18218;DHT22;9234;49.344;11.120;2023-06-24T12:38:33;30.80;54.20
18218;DHT22;9234;49.344;11.120;2023-06-24T12:41:02;31.00;53.20
18218;DHT22;9234;49.344;11.120;2023-06-24T12:43:31;30.90;52.90
18218;DHT22;9234;49.344;11.120;2023-06-24T12:46:01;30.50;52.50
18218;DHT22;9234;49.344;11.120;2023-06-24T12:48:30;30.20;55.00
18218;DHT22;9234;49.344;11.120;2023-06-24T12:50:58;30.00;54.60
18218;DHT22;9234;49.344;11.120;2023-06-24T12:53:26;30.10;54.90
18218;DHT22;9234;49.344;11.120;2023-06-24T12:55:55;30.40;54.00
18218;DHT22;9234;49.344;11.120;2023-06-24T12:58:23;30.70;55.60
18218;DHT22;9234;49.344;11.120;2023-06-24T13:00:52;31.30;54.20
18218;DHT22;9234;49.344;11.120;2023-06-24T13:03:22;31.50;51.80
18218;DHT22;9234;49.344;11.120;2023-06-24T13:05:50;31.60;51.90
18218;DHT22;9234;49.344;11.120;2023-06-24T13:08:19;31.30;51.50
18218;DHT22;9234;49.344;11.120;2023-06-24T13:10:47;31.30;52.70
18218;DHT22;9234;49.344;11.120;2023-06-24T13:13:15;31.60;53.70
18218;DHT22;9234;49.344;11.120;2023-06-24T13:15:44;31.60;52.30
18218;DHT22;9234;49.344;11.120;2023-06-24T13:18:13;31.30;53.00
18218;DHT22;9234;49.344;11.120;2023-06-24T13:20:43;30.80;52.60
18218;DHT22;9234;49.344;11.120;2023-06-24T13:23:12;30.40;52.60
18218;DHT22;9234;49.344;11.120;2023-06-24T13:25:41;30.40;54.20
18218;DHT22;9234;49.344;11.120;2023-06-24T13:28:10;30.60;53.40
18218;DHT22;9234;49.344;11.120;2023-06-24T13:30:46;30.90;52.50
18218;DHT22;9234;49.344;11.120;2023-06-24T13:33:23;31.30;52.10
18218;DHT22;9234;49.344;11.120;2023-06-24T13:35:57;31.60;51.00
18218;DHT22;9234;49.344;11.120;2023-06-24T13:38:26;31.40;49.30
18218;DHT22;9234;49.344;11.120;2023-06-24T13:41:01;31.00;50.80
18218;DHT22;9234;49.344;11.120;2023-06-24T13:43:29;31.00;52.40
18218;DHT22;9234;49.344;11.120;2023-06-24T13:45:58;31.50;51.50
18218;DHT22;9234;49.344;11.120;2023-06-24T13:48:26;31.90;49.20
18218;DHT22;9234;49.344;11.120;2023-06-24T13:50:54;32.20;49.70
18218;DHT22;9234;49.344;11.120;2023-06-24T13:53:24;32.60;47.80
18218;DHT22;9234;49.344;11.120;2023-06-24T13:55:54;33.10;49.70
18218;DHT22;9234;49.344;11.120;2023-06-24T13:58:22;33.60;47.50
18218;DHT22;9234;49.344;11.120;2023-06-24T14:00:51;33.90;47.00
18218;DHT22;9234;49.344;11.120;2023-06-24T14:03:20;34.20;46.20
18218;DHT22;9234;49.344;11.120;2023-06-24T14:05:48;34.50;44.40
18218;DHT22;9234;49.344;11.120;2023-06-24T14:08:19;34.70;43.60
18218;DHT22;9234;49.344;11.120;2023-06-24T14:10:49;34.90;43.90
18218;DHT22;9234;49.344;11.120;2023-06-24T14:13:17;35.30;43.90
18218;DHT22;9234;49.344;11.120;2023-06-24T14:15:46;35.40;42.80
18218;DHT22;9234;49.344;11.120;2023-06-24T14:18:14;35.40;41.90
18218;DHT22;9234;49.344;11.120;2023-06-24T14:20:42;35.30;40.50
18218;DHT22;9234;49.344;11.120;2023-06-24T14:23:11;35.00;41.00
18218;DHT22;9234;49.344;11.120;2023-06-24T14:25:39;34.90;40.90
18218;DHT22;9234;49.344;11.120;2023-06-24T14:28:09;35.20;42.30
18218;DHT22;9234;49.344;11.120;2023-06-24T14:30:37;35.40;40.70
18218;DHT22;9234;49.344;11.120;2023-06-24T14:33:06;35.80;41.80
18218;DHT22;9234;49.344;11.120;2023-06-24T14:35:36;35.80;40.50
18218;DHT22;9234;49.344;11.120;2023-06-24T14:38:05;35.90;40.80
18218;DHT22;9234;49.344;11.120;2023-06-24T14:40:33;36.20;40.50
18218;DHT22;9234;49.344;11.120;2023-06-24T14:43:02;36.50;41.70
18218;DHT22;9234;49.344;11.120;2023-06-24T14:45:32;36.70;40.00
18218;DHT22;9234;49.344;11.120;2023-06-24T14:48:00;36.60;38.10
18218;DHT22;9234;49.344;11.120;2023-06-24T14:50:29;36.00;39.30
18218;DHT22;9234;49.344;11.120;2023-06-24T14:52:57;35.50;41.10
18218;DHT22;9234;49.344;11.120;2023-06-24T14:55:25;35.50;40.80
18218;DHT22;9234;49.344;11.120;2023-06-24T14:57:53;35.20;40.90
18218;DHT22;9234;49.344;11.120;2023-06-24T15:00:21;34.50;41.50
18218;DHT22;9234;49.344;11.120;2023-06-24T15:02:51;33.80;42.20
18218;DHT22;9234;49.344;11.120;2023-06-24T15:05:20;33.20;43.20
18218;DHT22;9234;49.344;11.120;2023-06-24T15:07:48;32.60;43.80
18218;DHT22;9234;49.344;11.120;2023-06-24T15:10:16;32.00;44.80
18218;DHT22;9234;49.344;11.120;2023-06-24T15:12:45;31.60;45.20
18218;DHT22;9234;49.344;11.120;2023-06-24T15:15:14;31.50;45.30
18218;DHT22;9234;49.344;11.120;2023-06-24T15:17:42;31.60;45.30
18218;DHT22;9234;49.344;11.120;2023-06-24T15:20:13;31.70;45.30
18218;DHT22;9234;49.344;11.120;2023-06-24T15:22:42;31.60;45.80
18218;DHT22;9234;49.344;11.120;2023-06-24T15:25:10;31.40;45.40
18218;DHT22;9234;49.344;11.120;2023-06-24T15:27:39;31.20;45.20
18218;DHT22;9234;49.344;11.120;2023-06-24T15:30:08;31.30;45.70
18218;DHT22;9234;49.344;11.120;2023-06-24T15:32:36;31.50;45.00
18218;DHT22;9234;49.344;11.120;2023-06-24T15:35:07;31.50;45.10
18218;DHT22;9234;49.344;11.120;2023-06-24T15:37:37;31.30;44.80
18218;DHT22;9234;49.344;11.120;2023-06-24T15:40:07;31.10;45.40
18218;DHT22;9234;49.344;11.120;2023-06-24T15:42:35;30.80;46.00
18218;DHT22;9234;49.344;11.120;2023-06-24T15:45:05;31.10;47.40
18218;DHT22;9234;49.344;11.120;2023-06-24T15:47:34;31.60;46.50
18218;DHT22;9234;49.344;11.120;2023-06-24T15:50:05;32.40;46.90
18218;DHT22;9234;49.344;11.120;2023-06-24T15:52:34;32.90;44.30
18218;DHT22;9234;49.344;11.120;2023-06-24T15:55:04;33.50;43.10
18218;DHT22;9234;49.344;11.120;2023-06-24T15:57:35;34.00;41.60